sensor_id;sensor_type;location;lat;lon;timestamp;pressure;altitude;pressure_sealevel;temperature;humidity
49065;BME280;34877;27.062;-82.386;2023-04-01T00:08:18;102109.13;;;18.66;86.58
49065;BME280;34877;27.062;-82.386;2023-04-01T00:18:23;102113.36;;;18.66;87.16
49065;BME280;34877;27.062;-82.386;2023-04-01T00:28:28;102120.41;;;18.33;88.66
49065;BME280;34877;27.062;-82.386;2023-04-01T00:38:33;102130.51;;;18.11;88.38
49065;BME280;34877;27.062;-82.386;2023-04-01T00:48:39;102144.07;;;18.22;89.87
49065;BME280;34877;27.062;-82.386;2023-04-01T00:58:50;102150.21;;;18.01;89.50
49065;BME280;34877;27.062;-82.386;2023-04-01T01:09:18;102161.10;;;17.99;91.39
49065;BME280;34877;27.062;-82.386;2023-04-01T01:19:48;102170.90;;;18.18;91.44
49065;BME280;34877;27.062;-82.386;2023-04-01T01:30:10;102187.36;;;18.10;94.92
49065;BME280;34877;27.062;-82.386;2023-04-01T01:40:17;102194.20;;;17.61;94.70
49065;BME280;34877;27.062;-82.386;2023-04-01T01:50:23;102204.38;;;18.06;93.31
49065;BME280;34877;27.062;-82.386;2023-04-01T02:00:27;102202.06;;;17.83;92.06
49065;BME280;34877;27.062;-82.386;2023-04-01T02:10:36;102206.95;;;18.04;92.49
49065;BME280;34877;27.062;-82.386;2023-04-01T02:20:43;102219.30;;;17.68;93.64
49065;BME280;34877;27.062;-82.386;2023-04-01T02:30:47;102236.60;;;17.76;94.55
49065;BME280;34877;27.062;-82.386;2023-04-01T02:40:59;102261.86;;;17.93;95.26
49065;BME280;34877;27.062;-82.386;2023-04-01T02:51:01;102249.85;;;17.79;93.41
49065;BME280;34877;27.062;-82.386;2023-04-01T03:01:07;102260.67;;;18.04;93.24
49065;BME280;34877;27.062;-82.386;2023-04-01T03:11:13;102273.95;;;17.49;93.13
49065;BME280;34877;27.062;-82.386;2023-04-01T03:21:19;102278.89;;;17.70;92.25
49065;BME280;34877;27.062;-82.386;2023-04-01T03:31:22;102277.87;;;17.65;90.28
49065;BME280;34877;27.062;-82.386;2023-04-01T03:41:27;102266.75;;;17.58;87.27
49065;BME280;34877;27.062;-82.386;2023-04-01T03:51:32;102265.71;;;18.14;85.36
49065;BME280;34877;27.062;-82.386;2023-04-01T04:01:37;102256.64;;;17.51;83.55
49065;BME280;34877;27.062;-82.386;2023-04-01T04:11:41;102253.45;;;17.64;82.34
49065;BME280;34877;27.062;-82.386;2023-04-01T04:21:47;102246.97;;;17.43;81.77
49065;BME280;34877;27.062;-82.386;2023-04-01T04:31:52;102233.76;;;17.36;81.41
49065;BME280;34877;27.062;-82.386;2023-04-01T04:41:57;102222.40;;;17.27;81.21
49065;BME280;34877;27.062;-82.386;2023-04-01T04:52:02;102230.48;;;17.18;81.10
49065;BME280;34877;27.062;-82.386;2023-04-01T05:02:06;102234.95;;;17.13;81.10
49065;BME280;34877;27.062;-82.386;2023-04-01T05:12:12;102230.22;;;17.52;81.14
49065;BME280;34877;27.062;-82.386;2023-04-01T05:22:17;102226.95;;;17.24;81.09
49065;BME280;34877;27.062;-82.386;2023-04-01T05:32:22;102232.70;;;16.71;81.22
49065;BME280;34877;27.062;-82.386;2023-04-01T05:42:27;102226.27;;;17.33;81.12
49065;BME280;34877;27.062;-82.386;2023-04-01T05:52:32;102208.94;;;17.01;81.05
49065;BME280;34877;27.062;-82.386;2023-04-01T06:02:36;102204.27;;;16.57;80.85
49065;BME280;34877;27.062;-82.386;2023-04-01T06:12:56;102188.71;;;16.83;81.26
49065;BME280;34877;27.062;-82.386;2023-04-01T06:23:14;102171.42;;;16.74;81.75
49065;BME280;34877;27.062;-82.386;2023-04-01T06:33:36;102146.29;;;16.49;81.96
49065;BME280;34877;27.062;-82.386;2023-04-01T06:43:52;102138.95;;;16.65;81.92
49065;BME280;34877;27.062;-82.386;2023-04-01T06:54:06;102143.21;;;16.57;81.99
49065;BME280;34877;27.062;-82.386;2023-04-01T07:04:15;102129.41;;;16.41;82.38
49065;BME280;34877;27.062;-82.386;2023-04-01T07:14:27;102117.77;;;16.71;83.04
49065;BME280;34877;27.062;-82.386;2023-04-01T07:24:35;102114.32;;;16.25;83.24
49065;BME280;34877;27.062;-82.386;2023-04-01T07:34:52;102125.08;;;16.38;83.04
49065;BME280;34877;27.062;-82.386;2023-04-01T07:45:09;102133.86;;;15.79;83.41
49065;BME280;34877;27.062;-82.386;2023-04-01T07:55:20;102132.94;;;16.17;83.48
49065;BME280;34877;27.062;-82.386;2023-04-01T08:05:30;102122.75;;;16.27;83.65
49065;BME280;34877;27.062;-82.386;2023-04-01T08:15:42;102097.15;;;15.96;84.33
49065;BME280;34877;27.062;-82.386;2023-04-01T08:25:56;102093.42;;;16.20;85.07
49065;BME280;34877;27.062;-82.386;2023-04-01T08:36:08;102087.11;;;15.82;85.62
49065;BME280;34877;27.062;-82.386;2023-04-01T08:46:20;102083.08;;;16.19;85.47
49065;BME280;34877;27.062;-82.386;2023-04-01T08:56:36;102053.12;;;16.09;85.65
49065;BME280;34877;27.062;-82.386;2023-04-01T09:06:55;102048.29;;;15.95;86.66
49065;BME280;34877;27.062;-82.386;2023-04-01T09:17:17;102049.88;;;16.02;87.47
49065;BME280;34877;27.062;-82.386;2023-04-01T09:27:28;102046.81;;;15.33;88.01
49065;BME280;34877;27.062;-82.386;2023-04-01T09:37:40;102038.45;;;15.75;87.90
49065;BME280;34877;27.062;-82.386;2023-04-01T09:48:02;102035.35;;;15.99;88.22
49065;BME280;34877;27.062;-82.386;2023-04-01T09:58:25;102036.94;;;15.68;89.04
49065;BME280;34877;27.062;-82.386;2023-04-01T10:08:54;102037.14;;;15.63;89.44
49065;BME280;34877;27.062;-82.386;2023-04-01T10:31:36;102045.48;;;15.80;90.83
49065;BME280;34877;27.062;-82.386;2023-04-01T10:41:58;102071.44;;;15.66;90.65
49065;BME280;34877;27.062;-82.386;2023-04-01T10:52:26;102072.38;;;15.64;90.71
49065;BME280;34877;27.062;-82.386;2023-04-01T11:15:16;102088.66;;;15.60;91.34
49065;BME280;34877;27.062;-82.386;2023-04-01T11:25:43;102092.52;;;15.80;91.07
49065;BME280;34877;27.062;-82.386;2023-04-01T11:36:02;102100.31;;;15.77;90.61
49065;BME280;34877;27.062;-82.386;2023-04-01T11:46:12;102113.32;;;15.49;90.96
49065;BME280;34877;27.062;-82.386;2023-04-01T11:56:44;102121.85;;;15.63;91.95
49065;BME280;34877;27.062;-82.386;2023-04-01T12:06:58;102129.29;;;15.59;92.79
49065;BME280;34877;27.062;-82.386;2023-04-01T12:17:15;102142.52;;;15.79;93.76
49065;BME280;34877;27.062;-82.386;2023-04-01T12:27:38;102151.39;;;15.38;94.36
49065;BME280;34877;27.062;-82.386;2023-04-01T12:37:47;102156.28;;;15.66;93.60
49065;BME280;34877;27.062;-82.386;2023-04-01T12:48:24;102160.22;;;15.41;92.21
49065;BME280;34877;27.062;-82.386;2023-04-01T12:58:47;102167.77;;;15.56;96.91
49065;BME280;34877;27.062;-82.386;2023-04-01T13:09:06;102155.82;;;15.38;97.51
49065;BME280;34877;27.062;-82.386;2023-04-01T13:19:22;102158.09;;;15.60;96.03
49065;BME280;34877;27.062;-82.386;2023-04-01T13:29:31;102154.44;;;15.01;94.50
49065;BME280;34877;27.062;-82.386;2023-04-01T13:39:46;102151.89;;;15.50;93.07
49065;BME280;34877;27.062;-82.386;2023-04-01T13:50:03;102158.85;;;15.67;92.80
49065;BME280;34877;27.062;-82.386;2023-04-01T14:00:23;102158.12;;;15.66;95.60
49065;BME280;34877;27.062;-82.386;2023-04-01T14:10:34;102168.13;;;15.93;97.93
49065;BME280;34877;27.062;-82.386;2023-04-01T14:20:48;102177.18;;;15.28;99.74
49065;BME280;34877;27.062;-82.386;2023-04-01T14:31:15;102193.63;;;15.49;100.00
49065;BME280;34877;27.062;-82.386;2023-04-01T14:41:32;102191.32;;;15.40;100.00
49065;BME280;34877;27.062;-82.386;2023-04-01T14:51:38;102191.91;;;15.53;100.00
49065;BME280;34877;27.062;-82.386;2023-04-01T15:01:47;102201.09;;;15.14;100.00
49065;BME280;34877;27.062;-82.386;2023-04-01T15:12:01;102198.54;;;15.89;100.00
49065;BME280;34877;27.062;-82.386;2023-04-01T15:22:24;102207.37;;;15.93;100.00
49065;BME280;34877;27.062;-82.386;2023-04-01T15:32:41;102215.16;;;15.68;100.00
49065;BME280;34877;27.062;-82.386;2023-04-01T15:43:03;102218.20;;;16.05;100.00
49065;BME280;34877;27.062;-82.386;2023-04-01T15:53:24;102223.53;;;15.92;100.00
49065;BME280;34877;27.062;-82.386;2023-04-01T16:03:38;102217.36;;;15.58;100.00
49065;BME280;34877;27.062;-82.386;2023-04-01T16:14:01;102215.50;;;15.82;100.00
49065;BME280;34877;27.062;-82.386;2023-04-01T16:24:17;102211.26;;;16.04;100.00
49065;BME280;34877;27.062;-82.386;2023-04-01T16:34:31;102192.79;;;16.07;100.00
49065;BME280;34877;27.062;-82.386;2023-04-01T16:44:49;102188.49;;;15.97;100.00
49065;BME280;34877;27.062;-82.386;2023-04-01T16:55:01;102180.00;;;16.41;100.00
49065;BME280;34877;27.062;-82.386;2023-04-01T17:05:09;102179.84;;;15.67;100.00
49065;BME280;34877;27.062;-82.386;2023-04-01T17:15:21;102165.10;;;15.77;100.00
49065;BME280;34877;27.062;-82.386;2023-04-01T17:25:44;102155.82;;;16.45;100.00
49065;BME280;34877;27.062;-82.386;2023-04-01T17:35:58;102137.96;;;16.16;100.00
49065;BME280;34877;27.062;-82.386;2023-04-01T17:46:10;102125.92;;;16.04;100.00
49065;BME280;34877;27.062;-82.386;2023-04-01T17:56:33;102113.14;;;16.13;100.00
49065;BME280;34877;27.062;-82.386;2023-04-01T18:06:54;102112.23;;;16.41;100.00
49065;BME280;34877;27.062;-82.386;2023-04-01T18:17:16;102107.87;;;16.90;100.00
49065;BME280;34877;27.062;-82.386;2023-04-01T18:27:24;102079.16;;;16.59;100.00
49065;BME280;34877;27.062;-82.386;2023-04-01T18:37:36;102063.73;;;16.47;100.00
49065;BME280;34877;27.062;-82.386;2023-04-01T18:47:44;102054.79;;;16.40;100.00
49065;BME280;34877;27.062;-82.386;2023-04-01T18:58:05;102039.72;;;16.52;100.00
49065;BME280;34877;27.062;-82.386;2023-04-01T19:08:19;102028.90;;;17.10;100.00
49065;BME280;34877;27.062;-82.386;2023-04-01T19:18:36;102014.33;;;17.21;100.00
49065;BME280;34877;27.062;-82.386;2023-04-01T19:28:52;102001.96;;;17.27;100.00
49065;BME280;34877;27.062;-82.386;2023-04-01T19:39:05;101982.59;;;16.96;100.00
49065;BME280;34877;27.062;-82.386;2023-04-01T19:49:27;101973.71;;;17.14;100.00
49065;BME280;34877;27.062;-82.386;2023-04-01T19:59:41;101972.63;;;17.59;100.00
49065;BME280;34877;27.062;-82.386;2023-04-01T20:10:01;101966.21;;;17.78;100.00
49065;BME280;34877;27.062;-82.386;2023-04-01T20:20:20;101956.33;;;17.64;100.00
49065;BME280;34877;27.062;-82.386;2023-04-01T20:30:45;101943.33;;;17.37;100.00
49065;BME280;34877;27.062;-82.386;2023-04-01T20:41:03;101933.85;;;17.91;100.00
49065;BME280;34877;27.062;-82.386;2023-04-01T20:51:14;101921.18;;;17.88;100.00
49065;BME280;34877;27.062;-82.386;2023-04-01T21:01:25;101917.79;;;18.12;100.00
49065;BME280;34877;27.062;-82.386;2023-04-01T21:11:37;101920.50;;;17.83;100.00
49065;BME280;34877;27.062;-82.386;2023-04-01T21:21:53;101921.70;;;18.19;100.00
49065;BME280;34877;27.062;-82.386;2023-04-01T21:32:30;101906.76;;;17.64;100.00
49065;BME280;34877;27.062;-82.386;2023-04-01T21:42:48;101910.59;;;18.11;100.00
49065;BME280;34877;27.062;-82.386;2023-04-01T21:53:59;101904.38;;;18.03;97.93
49065;BME280;34877;27.062;-82.386;2023-04-01T22:04:29;101904.05;;;17.70;97.26
49065;BME280;34877;27.062;-82.386;2023-04-01T22:14:43;101898.24;;;18.38;96.56
49065;BME280;34877;27.062;-82.386;2023-04-01T22:25:00;101901.48;;;17.09;95.52
49065;BME280;34877;27.062;-82.386;2023-04-01T22:35:14;101907.39;;;18.04;95.86
49065;BME280;34877;27.062;-82.386;2023-04-01T22:45:37;101910.56;;;18.18;95.63
49065;BME280;34877;27.062;-82.386;2023-04-01T22:55:46;101923.13;;;18.09;96.38
49065;BME280;34877;27.062;-82.386;2023-04-01T23:05:54;101935.02;;;16.87;90.54
49065;BME280;34877;27.062;-82.386;2023-04-01T23:16:03;101936.28;;;16.46;83.56
49065;BME280;34877;27.062;-82.386;2023-04-01T23:26:10;101930.94;;;16.18;79.16
49065;BME280;34877;27.062;-82.386;2023-04-01T23:36:19;101938.57;;;16.16;75.79
49065;BME280;34877;27.062;-82.386;2023-04-01T23:46:22;101930.20;;;15.69;74.53
49065;BME280;34877;27.062;-82.386;2023-04-01T23:56:36;101945.79;;;15.69;74.58
